createdAt,value
2018-10-16T00:02:24.634Z,99.90
2018-10-16T00:04:53.160Z,99.90
2018-10-16T00:07:21.590Z,99.90
2018-10-16T00:09:50.173Z,99.90
2018-10-16T00:12:18.633Z,99.90
2018-10-16T00:14:47.150Z,99.90
2018-10-16T00:17:15.651Z,99.90
2018-10-16T00:19:44.097Z,99.90
2018-10-16T00:22:12.624Z,99.90
2018-10-16T00:24:41.107Z,99.90
2018-10-16T00:27:09.640Z,99.90
2018-10-16T00:29:38.267Z,99.90
2018-10-16T00:32:06.857Z,99.90
2018-10-16T00:34:35.359Z,99.90
2018-10-16T00:37:04.039Z,99.90
2018-10-16T00:39:32.514Z,99.90
2018-10-16T00:42:01.036Z,99.90
2018-10-16T00:44:29.516Z,99.90
2018-10-16T00:46:58.132Z,99.90
2018-10-16T00:49:26.691Z,99.90
2018-10-16T00:51:55.121Z,99.90
2018-10-16T00:54:23.606Z,99.90
2018-10-16T00:56:52.072Z,99.90
2018-10-16T00:59:20.619Z,99.90
2018-10-16T01:01:49.084Z,99.90
2018-10-16T01:04:20.380Z,99.90
2018-10-16T01:06:48.827Z,99.90
2018-10-16T01:09:17.333Z,99.90
2018-10-16T01:11:45.805Z,99.90
2018-10-16T01:14:14.306Z,99.90
2018-10-16T01:16:42.930Z,99.90
2018-10-16T01:19:11.383Z,99.90
2018-10-16T01:21:39.882Z,99.90
2018-10-16T01:24:08.371Z,99.90
2018-10-16T01:26:36.837Z,99.90
2018-10-16T01:29:05.350Z,99.90
2018-10-16T01:31:33.887Z,99.90
2018-10-16T01:34:02.470Z,99.90
2018-10-16T01:36:31.364Z,99.90
2018-10-16T01:38:59.820Z,99.90
2018-10-16T01:41:28.306Z,99.90
2018-10-16T01:43:56.769Z,99.90
2018-10-16T01:46:25.235Z,99.90
2018-10-16T01:48:53.721Z,99.90
2018-10-16T01:51:22.225Z,99.90
2018-10-16T01:53:50.660Z,99.90
2018-10-16T01:56:19.152Z,99.90
2018-10-16T01:58:47.946Z,99.90
2018-10-16T02:01:16.515Z,99.90
2018-10-16T02:03:44.979Z,99.90
2018-10-16T02:06:13.668Z,99.90
2018-10-16T02:08:42.197Z,99.90
2018-10-16T02:11:10.706Z,99.90
2018-10-16T02:13:39.192Z,99.90
2018-10-16T02:16:07.664Z,99.90
2018-10-16T02:18:36.329Z,99.90
2018-10-16T02:21:05.211Z,99.90
2018-10-16T02:23:33.806Z,99.90
2018-10-16T02:26:02.281Z,99.90
2018-10-16T02:28:30.803Z,99.90
2018-10-16T02:30:59.299Z,99.90
2018-10-16T02:33:27.747Z,99.90
2018-10-16T02:35:56.350Z,99.90
2018-10-16T02:38:24.919Z,99.90
2018-10-16T02:40:53.432Z,99.90
2018-10-16T02:43:21.993Z,99.90
2018-10-16T02:45:50.507Z,99.90
2018-10-16T02:48:18.983Z,99.90
2018-10-16T02:50:47.480Z,99.90
2018-10-16T02:53:16.057Z,99.90
2018-10-16T02:55:44.560Z,99.90
2018-10-16T02:58:13.065Z,99.90
2018-10-16T03:00:41.708Z,99.90
2018-10-16T03:03:10.807Z,99.90
2018-10-16T03:05:39.475Z,99.90
2018-10-16T03:08:08.406Z,99.90
2018-10-16T03:10:36.927Z,99.90
2018-10-16T03:13:05.986Z,99.90
2018-10-16T03:15:34.469Z,99.90
2018-10-16T03:18:02.938Z,99.90
2018-10-16T03:20:31.534Z,99.90
2018-10-16T03:23:00.065Z,99.90
2018-10-16T03:25:28.614Z,99.90
2018-10-16T03:27:57.108Z,99.90
2018-10-16T03:30:25.712Z,99.90
2018-10-16T03:32:54.272Z,99.90
2018-10-16T03:35:22.787Z,99.90
2018-10-16T03:37:51.303Z,99.90
2018-10-16T03:40:20.001Z,99.90
2018-10-16T03:42:48.467Z,99.90
2018-10-16T03:45:16.918Z,99.90
2018-10-16T03:47:45.450Z,99.90
2018-10-16T03:50:13.848Z,99.90
2018-10-16T03:52:42.317Z,99.90
2018-10-16T03:55:10.807Z,99.90
2018-10-16T03:57:39.647Z,99.90
2018-10-16T04:00:09.768Z,99.90
2018-10-16T04:02:38.533Z,99.90
2018-10-16T04:05:07.128Z,99.90
2018-10-16T04:07:35.623Z,99.90
2018-10-16T04:10:04.260Z,99.90
2018-10-16T04:12:32.725Z,99.90
2018-10-16T04:15:01.179Z,99.90
2018-10-16T04:17:29.754Z,99.90
2018-10-16T04:19:58.216Z,99.90
2018-10-16T04:22:26.754Z,99.90
2018-10-16T04:24:55.366Z,99.90
2018-10-16T04:27:23.880Z,99.90
2018-10-16T04:29:52.389Z,99.90
2018-10-16T04:32:20.840Z,99.90
2018-10-16T04:34:49.344Z,99.90
2018-10-16T04:37:24.697Z,99.90
2018-10-16T04:39:53.192Z,99.90
2018-10-16T04:42:21.632Z,99.90
2018-10-16T04:44:50.099Z,99.90
2018-10-16T04:47:18.725Z,99.90
2018-10-16T04:49:47.218Z,99.90
2018-10-16T04:52:15.678Z,99.90
2018-10-16T04:54:44.217Z,99.90
2018-10-16T04:57:12.980Z,99.90
2018-10-16T04:59:42.699Z,99.90
2018-10-16T05:02:11.187Z,99.90
2018-10-16T05:04:39.675Z,99.90
2018-10-16T05:07:08.177Z,99.90
2018-10-16T05:09:36.780Z,99.90
2018-10-16T05:12:05.318Z,99.90
2018-10-16T05:14:33.764Z,99.90
2018-10-16T05:17:02.251Z,99.90
2018-10-16T05:19:30.673Z,99.90
2018-10-16T05:21:59.737Z,99.90
2018-10-16T05:24:28.223Z,99.90
2018-10-16T05:26:56.688Z,99.90
2018-10-16T05:29:25.226Z,99.90
2018-10-16T05:31:53.698Z,99.90
2018-10-16T05:34:22.282Z,99.90
2018-10-16T05:36:50.788Z,99.90
2018-10-16T05:39:19.378Z,99.90
2018-10-16T05:41:47.800Z,99.90
2018-10-16T05:44:16.228Z,99.90
2018-10-16T05:46:44.685Z,99.90
2018-10-16T05:49:13.140Z,99.90
2018-10-16T05:51:41.717Z,99.90
2018-10-16T05:54:10.203Z,99.90
2018-10-16T05:56:38.740Z,99.90
2018-10-16T05:59:07.201Z,99.90
2018-10-16T06:01:36.559Z,99.90
2018-10-16T06:04:05.480Z,99.90
2018-10-16T06:06:33.999Z,99.90
2018-10-16T06:09:13.389Z,99.90
2018-10-16T06:11:41.955Z,99.90
2018-10-16T06:14:10.484Z,99.90
2018-10-16T06:16:39.016Z,99.90
2018-10-16T06:19:07.527Z,99.90
2018-10-16T06:21:36.115Z,99.90
2018-10-16T06:24:04.593Z,99.90
2018-10-16T06:26:33.215Z,99.90
2018-10-16T06:29:01.691Z,99.90
2018-10-16T06:31:30.223Z,99.90
2018-10-16T06:33:59.353Z,99.90
2018-10-16T06:36:27.850Z,99.90
2018-10-16T06:38:56.311Z,99.90
2018-10-16T06:41:24.947Z,99.90
2018-10-16T06:43:53.486Z,99.90
2018-10-16T06:46:22.112Z,99.90
2018-10-16T06:48:51.008Z,99.90
2018-10-16T06:51:19.144Z,99.90
2018-10-16T06:53:47.926Z,99.90
2018-10-16T06:56:16.639Z,99.90
2018-10-16T06:58:45.634Z,99.90
2018-10-16T07:01:14.140Z,99.90
2018-10-16T07:03:42.644Z,99.90
2018-10-16T07:06:11.222Z,99.90
2018-10-16T07:08:39.701Z,99.90
2018-10-16T07:11:08.268Z,99.90
2018-10-16T07:13:36.722Z,99.90
2018-10-16T07:16:05.972Z,99.90
2018-10-16T07:18:34.443Z,99.90
2018-10-16T07:21:02.965Z,99.90
2018-10-16T07:23:31.891Z,99.90
2018-10-16T07:26:00.332Z,99.90
2018-10-16T07:28:28.805Z,99.90
2018-10-16T07:30:57.322Z,99.90
2018-10-16T07:33:25.755Z,99.90
2018-10-16T07:35:54.242Z,99.90
2018-10-16T07:38:22.826Z,99.90
2018-10-16T07:40:51.324Z,99.90
2018-10-16T07:43:19.780Z,99.90
2018-10-16T07:45:48.397Z,99.90
2018-10-16T07:48:16.943Z,99.90
2018-10-16T07:50:45.395Z,99.90
2018-10-16T07:53:13.882Z,99.90
2018-10-16T07:55:42.921Z,99.90
2018-10-16T07:58:11.412Z,99.90
2018-10-16T08:00:40.692Z,99.90
2018-10-16T08:03:09.176Z,99.90
2018-10-16T08:05:37.620Z,99.90
2018-10-16T08:08:06.357Z,99.90
2018-10-16T08:10:34.972Z,99.90
2018-10-16T08:13:03.621Z,99.90
2018-10-16T08:15:32.098Z,99.90
2018-10-16T08:18:01.139Z,99.90
2018-10-16T08:20:34.013Z,99.90
2018-10-16T08:23:02.836Z,99.90
2018-10-16T08:25:31.486Z,99.90
2018-10-16T08:27:59.996Z,99.90
2018-10-16T08:30:29.070Z,99.90
2018-10-16T08:32:58.041Z,99.90
2018-10-16T08:35:26.491Z,99.90
2018-10-16T08:40:05.498Z,99.90
2018-10-16T08:44:51.248Z,99.90
2018-10-16T08:47:31.242Z,99.90
2018-10-16T08:51:14.750Z,99.90
2018-10-16T08:53:43.719Z,99.90
2018-10-16T08:56:12.318Z,99.90
2018-10-16T08:58:40.869Z,99.90
2018-10-16T09:01:09.348Z,99.90
2018-10-16T09:03:37.968Z,99.90
2018-10-16T09:06:06.741Z,99.90
2018-10-16T09:08:35.236Z,99.90
2018-10-16T09:11:03.743Z,99.90
2018-10-16T09:13:32.334Z,99.90
2018-10-16T09:16:00.886Z,99.90
2018-10-16T09:18:29.377Z,99.90
2018-10-16T09:20:58.535Z,99.90
2018-10-16T09:23:27.079Z,99.90
2018-10-16T09:25:55.953Z,99.90
2018-10-16T09:28:24.543Z,99.90
2018-10-16T09:30:53.053Z,99.90
2018-10-16T09:33:21.500Z,99.90
2018-10-16T09:35:49.978Z,99.90
2018-10-16T09:38:18.513Z,99.90
2018-10-16T09:40:47.182Z,99.90
2018-10-16T09:43:15.624Z,99.90
2018-10-16T09:45:44.232Z,99.60
2018-10-16T09:48:12.749Z,99.00
2018-10-16T09:50:41.290Z,98.60
2018-10-16T09:53:09.869Z,99.10
2018-10-16T09:55:38.458Z,98.70
2018-10-16T09:58:07.024Z,98.70
2018-10-16T10:00:40.875Z,97.40
2018-10-16T10:03:09.472Z,97.00
2018-10-16T10:05:37.969Z,96.90
2018-10-16T10:08:08.242Z,96.70
2018-10-16T10:10:36.737Z,96.50
2018-10-16T10:13:05.634Z,96.50
2018-10-16T10:15:34.326Z,96.30
2018-10-16T10:18:02.925Z,96.50
2018-10-16T10:20:31.373Z,96.60
2018-10-16T10:22:59.886Z,96.00
2018-10-16T10:25:28.436Z,95.00
2018-10-16T10:27:56.987Z,94.10
2018-10-16T10:30:25.530Z,93.60
2018-10-16T10:32:53.978Z,92.60
2018-10-16T10:35:22.652Z,92.00
2018-10-16T10:37:51.112Z,92.80
2018-10-16T10:40:19.644Z,93.60
2018-10-16T10:42:48.120Z,93.30
2018-10-16T10:45:16.607Z,92.20
2018-10-16T10:47:45.117Z,91.60
2018-10-16T10:50:15.253Z,91.40
2018-10-16T10:52:43.635Z,91.30
2018-10-16T10:55:12.164Z,91.40
2018-10-16T10:57:41.042Z,91.30
2018-10-16T11:00:11.474Z,91.10
2018-10-16T11:02:40.703Z,90.80
2018-10-16T11:05:10.371Z,89.60
2018-10-16T11:07:38.868Z,89.30
2018-10-16T11:10:09.605Z,89.10
2018-10-16T11:12:38.216Z,86.70
2018-10-16T11:15:08.019Z,85.00
2018-10-16T11:17:37.391Z,84.10
2018-10-16T11:20:06.877Z,85.60
2018-10-16T11:22:35.437Z,85.20
2018-10-16T11:25:04.508Z,84.70
2018-10-16T11:27:33.054Z,84.30
2018-10-16T11:30:01.592Z,85.80
2018-10-16T11:32:30.421Z,86.90
2018-10-16T11:34:58.904Z,86.70
2018-10-16T11:37:27.410Z,86.60
2018-10-16T11:39:55.959Z,85.80
2018-10-16T11:42:24.512Z,84.10
2018-10-16T11:44:53.001Z,85.60
2018-10-16T11:47:21.504Z,85.50
2018-10-16T11:49:49.980Z,86.70
2018-10-16T11:52:18.691Z,87.00
2018-10-16T11:54:47.346Z,87.30
2018-10-16T11:57:15.935Z,87.40
2018-10-16T11:59:44.443Z,87.10
2018-10-16T12:02:13.062Z,86.00
2018-10-16T12:04:41.489Z,85.70
2018-10-16T12:07:10.828Z,86.90
2018-10-16T12:09:39.331Z,86.90
2018-10-16T12:12:07.865Z,87.00
2018-10-16T12:14:36.334Z,87.30
2018-10-16T12:17:40.634Z,87.30
2018-10-16T12:20:12.192Z,87.40
2018-10-16T12:22:41.575Z,87.30
2018-10-16T12:25:10.153Z,85.70
2018-10-16T12:27:38.677Z,85.00
2018-10-16T12:30:07.666Z,85.50
2018-10-16T12:32:36.613Z,85.90
2018-10-16T12:35:06.025Z,85.80
2018-10-16T12:37:34.655Z,85.70
2018-10-16T12:40:03.264Z,85.50
2018-10-16T12:42:32.464Z,84.80
2018-10-16T12:45:00.978Z,84.90
2018-10-16T12:47:29.435Z,85.80
2018-10-16T12:49:58.074Z,86.30
2018-10-16T12:52:26.561Z,86.00
2018-10-16T12:54:55.088Z,85.90
2018-10-16T12:57:23.728Z,86.20
2018-10-16T12:59:52.462Z,87.00
2018-10-16T13:02:20.968Z,85.80
2018-10-16T13:04:49.503Z,85.10
2018-10-16T13:07:23.275Z,83.50
2018-10-16T13:09:51.808Z,82.80
2018-10-16T13:12:20.393Z,82.20
2018-10-16T13:14:49.118Z,83.50
2018-10-16T13:17:17.765Z,83.90
2018-10-16T13:19:46.974Z,86.00
2018-10-16T13:22:15.522Z,87.30
2018-10-16T13:24:44.061Z,89.20
2018-10-16T13:27:13.200Z,89.90
2018-10-16T13:29:41.687Z,90.50
2018-10-16T13:32:10.274Z,90.80
2018-10-16T13:34:38.737Z,91.40
2018-10-16T13:37:07.432Z,91.40
2018-10-16T13:39:35.947Z,92.10
2018-10-16T13:42:04.479Z,91.70
2018-10-16T13:44:33.057Z,92.00
2018-10-16T13:47:01.560Z,92.50
2018-10-16T13:49:30.070Z,92.60
2018-10-16T13:51:58.610Z,93.10
2018-10-16T13:54:27.104Z,93.30
2018-10-16T13:56:55.666Z,93.30
2018-10-16T13:59:24.200Z,93.50
2018-10-16T14:01:52.720Z,93.60
2018-10-16T14:04:21.200Z,93.40
2018-10-16T14:06:50.243Z,93.70
2018-10-16T14:09:18.749Z,94.00
2018-10-16T14:11:47.282Z,94.30
2018-10-16T14:14:16.023Z,94.50
2018-10-16T14:16:44.489Z,94.60
2018-10-16T14:19:12.999Z,94.80
2018-10-16T14:21:42.101Z,95.30
2018-10-16T14:24:10.641Z,95.60
2018-10-16T14:26:39.874Z,95.70
2018-10-16T14:29:08.472Z,95.90
2018-10-16T14:31:36.979Z,96.00
2018-10-16T14:34:05.669Z,96.10
2018-10-16T14:36:34.177Z,96.30
2018-10-16T14:41:36.193Z,96.70
2018-10-16T14:44:05.110Z,96.80
2018-10-16T14:46:33.529Z,97.10
2018-10-16T14:49:02.057Z,97.50
2018-10-16T14:51:30.550Z,97.60
2018-10-16T14:53:59.237Z,98.00
2018-10-16T14:56:28.552Z,98.30
2018-10-16T14:58:57.076Z,98.90
2018-10-16T15:01:25.537Z,99.20
2018-10-16T15:03:54.599Z,99.40
2018-10-16T15:06:23.068Z,99.60
2018-10-16T15:08:51.604Z,99.60
2018-10-16T15:11:20.117Z,99.70
2018-10-16T15:13:48.601Z,99.90
2018-10-16T15:16:18.057Z,99.90
2018-10-16T15:18:46.601Z,99.90
2018-10-16T15:21:15.103Z,99.90
2018-10-16T15:23:43.639Z,99.90
2018-10-16T15:26:12.419Z,99.90
2018-10-16T15:28:40.956Z,99.90
2018-10-16T15:31:09.475Z,99.90
2018-10-16T15:33:37.980Z,99.90
2018-10-16T15:36:06.852Z,99.90
2018-10-16T15:38:35.871Z,99.90
2018-10-16T15:41:04.340Z,99.90
2018-10-16T15:43:32.936Z,99.90
2018-10-16T15:46:01.739Z,99.90
2018-10-16T15:48:30.205Z,99.90
2018-10-16T15:50:58.907Z,99.90
2018-10-16T15:53:27.414Z,99.90
2018-10-16T15:55:55.940Z,99.90
2018-10-16T15:58:24.495Z,99.90
2018-10-16T16:00:54.255Z,99.90
2018-10-16T16:03:22.823Z,99.90
2018-10-16T16:05:51.360Z,99.90
2018-10-16T16:08:19.833Z,99.90
2018-10-16T16:10:48.364Z,99.90
2018-10-16T16:13:16.948Z,99.90
2018-10-16T16:15:45.612Z,99.90
2018-10-16T16:18:14.091Z,99.90
2018-10-16T16:20:42.589Z,99.90
2018-10-16T16:23:11.119Z,99.90
2018-10-16T16:25:39.885Z,99.90
2018-10-16T16:28:08.470Z,99.90
2018-10-16T16:30:36.980Z,99.90
2018-10-16T16:33:05.995Z,99.90
2018-10-16T16:35:34.473Z,99.90
2018-10-16T16:38:03.156Z,99.90
2018-10-16T16:40:31.732Z,99.90
2018-10-16T16:43:00.253Z,99.90
2018-10-16T16:45:28.724Z,99.90
2018-10-16T16:47:57.226Z,99.90
2018-10-16T16:50:25.713Z,99.90
2018-10-16T16:52:54.210Z,99.90
2018-10-16T16:55:23.363Z,99.90
2018-10-16T16:57:51.865Z,99.90
2018-10-16T17:00:20.492Z,99.90
2018-10-16T17:02:49.131Z,99.90
2018-10-16T17:05:17.672Z,99.90
2018-10-16T17:07:46.202Z,99.90
2018-10-16T17:10:14.749Z,99.90
2018-10-16T17:12:43.255Z,99.90
2018-10-16T17:15:14.246Z,99.90
2018-10-16T17:17:43.239Z,99.90
2018-10-16T17:20:12.426Z,99.90
2018-10-16T17:22:40.879Z,99.90
2018-10-16T17:25:11.719Z,99.90
2018-10-16T17:27:40.919Z,99.90
2018-10-16T17:30:15.131Z,99.90
2018-10-16T17:32:44.103Z,99.90
2018-10-16T17:35:13.192Z,99.90
2018-10-16T17:37:42.111Z,99.90
2018-10-16T17:40:13.549Z,99.90
2018-10-16T17:42:42.181Z,99.90
2018-10-16T17:45:12.421Z,99.90
2018-10-16T17:47:41.279Z,99.90
2018-10-16T17:50:12.087Z,99.90
2018-10-16T17:52:41.093Z,99.90
2018-10-16T17:55:10.611Z,99.90
2018-10-16T17:57:39.386Z,99.90
2018-10-16T18:00:11.958Z,99.90
2018-10-16T18:02:40.758Z,99.90
2018-10-16T18:05:09.344Z,99.90
2018-10-16T18:07:38.144Z,99.90
2018-10-16T18:10:07.149Z,99.90
2018-10-16T18:12:35.735Z,99.90
2018-10-16T18:15:04.850Z,99.90
2018-10-16T18:17:33.364Z,99.90
2018-10-16T18:20:02.184Z,99.90
2018-10-16T18:22:30.764Z,99.90
2018-10-16T18:24:59.292Z,99.90
2018-10-16T18:27:27.842Z,99.90
2018-10-16T18:29:56.394Z,99.90
2018-10-16T18:32:24.900Z,99.90
2018-10-16T18:34:53.439Z,99.90
2018-10-16T18:37:22.670Z,99.90
2018-10-16T18:39:51.227Z,99.90
2018-10-16T18:42:20.124Z,99.90
2018-10-16T18:44:48.645Z,99.90
2018-10-16T18:47:17.260Z,99.90
2018-10-16T18:49:45.781Z,99.90
2018-10-16T18:52:14.256Z,99.90
2018-10-16T18:54:42.788Z,99.90
2018-10-16T18:57:11.367Z,99.90
2018-10-16T18:59:41.498Z,99.90
2018-10-16T19:02:10.134Z,99.90
2018-10-16T19:04:38.917Z,99.90
2018-10-16T19:07:07.727Z,99.90
2018-10-16T19:09:36.277Z,99.90
2018-10-16T19:12:04.961Z,99.90
2018-10-16T19:14:33.580Z,99.90
2018-10-16T19:17:02.268Z,99.90
2018-10-16T19:19:30.959Z,99.90
2018-10-16T19:22:01.145Z,99.90
2018-10-16T19:24:29.747Z,99.90
2018-10-16T19:26:59.370Z,99.90
2018-10-16T19:29:28.081Z,99.90
2018-10-16T19:31:56.639Z,99.90
2018-10-16T19:34:25.245Z,99.90
2018-10-16T19:36:53.761Z,99.90
2018-10-16T19:39:22.519Z,99.90
2018-10-16T19:41:51.038Z,99.90
2018-10-16T19:44:19.514Z,99.90
2018-10-16T19:46:48.000Z,99.90
2018-10-16T19:49:16.544Z,99.90
2018-10-16T19:51:45.121Z,99.90
2018-10-16T19:54:13.618Z,99.90
2018-10-16T19:56:42.223Z,99.90
2018-10-16T19:59:10.819Z,99.90
2018-10-16T20:01:39.505Z,99.90
2018-10-16T20:04:08.105Z,99.90
2018-10-16T20:06:36.637Z,99.90
2018-10-16T20:09:07.925Z,99.90
2018-10-16T20:11:36.926Z,99.90
2018-10-16T20:14:06.898Z,99.90
2018-10-16T20:16:35.358Z,99.90
2018-10-16T20:19:03.877Z,99.90
2018-10-16T20:21:32.326Z,99.90
2018-10-16T20:24:01.118Z,99.90
2018-10-16T20:26:29.572Z,99.90
2018-10-16T20:28:58.064Z,99.90
2018-10-16T20:31:27.252Z,99.90
2018-10-16T20:33:56.214Z,99.90
2018-10-16T20:36:25.529Z,99.90
2018-10-16T20:38:53.975Z,99.90
2018-10-16T20:41:22.528Z,99.90
2018-10-16T20:43:51.019Z,99.90
2018-10-16T20:46:19.618Z,99.90
2018-10-16T20:48:48.342Z,99.90
2018-10-16T20:51:17.481Z,99.90
2018-10-16T20:53:46.276Z,99.90
2018-10-16T20:56:14.945Z,99.90
2018-10-16T20:58:43.563Z,99.90
2018-10-16T21:01:13.835Z,99.90
2018-10-16T21:03:43.300Z,99.90
2018-10-16T21:06:12.597Z,99.90
2018-10-16T21:08:41.096Z,99.90
2018-10-16T21:11:09.803Z,99.90
2018-10-16T21:13:40.050Z,99.90
2018-10-16T21:16:08.680Z,99.90
2018-10-16T21:18:37.305Z,99.90
2018-10-16T21:21:05.887Z,99.90
2018-10-16T21:23:34.365Z,99.90
2018-10-16T21:26:03.037Z,99.90
2018-10-16T21:28:31.742Z,99.90
2018-10-16T21:31:00.438Z,99.90
2018-10-16T21:33:28.949Z,99.90
2018-10-16T21:35:57.458Z,99.90
2018-10-16T21:38:26.189Z,99.90
2018-10-16T21:40:54.803Z,99.90
2018-10-16T21:43:24.254Z,99.90
2018-10-16T21:45:52.857Z,99.90
2018-10-16T21:48:21.741Z,99.90
2018-10-16T21:50:50.283Z,99.90
2018-10-16T21:53:18.873Z,99.90
2018-10-16T21:55:47.414Z,99.90
2018-10-16T21:58:15.980Z,99.90
2018-10-16T22:00:50.018Z,99.90
2018-10-16T22:03:18.799Z,99.90
2018-10-16T22:05:47.775Z,99.90
2018-10-16T22:08:16.581Z,99.90
2018-10-16T22:10:45.396Z,99.90
2018-10-16T22:13:13.991Z,99.90
2018-10-16T22:15:42.449Z,99.90
2018-10-16T22:18:10.984Z,99.90
2018-10-16T22:20:39.689Z,99.90
2018-10-16T22:23:08.429Z,99.90
2018-10-16T22:25:36.960Z,99.90
2018-10-16T22:28:05.508Z,99.90
2018-10-16T22:30:34.056Z,99.90
2018-10-16T22:33:02.528Z,99.90
2018-10-16T22:35:30.979Z,99.90
2018-10-16T22:37:59.446Z,99.90
2018-10-16T22:40:27.889Z,99.90
2018-10-16T22:42:56.407Z,99.90
2018-10-16T22:45:24.878Z,99.90
2018-10-16T22:47:53.371Z,99.90
2018-10-16T22:50:21.844Z,99.90
2018-10-16T22:52:50.325Z,99.90
2018-10-16T22:55:18.782Z,99.90
2018-10-16T22:57:47.551Z,99.90
2018-10-16T23:00:17.999Z,99.90
2018-10-16T23:02:47.462Z,99.90
2018-10-16T23:05:16.098Z,99.90
2018-10-16T23:07:45.942Z,99.90
2018-10-16T23:10:14.963Z,99.90
2018-10-16T23:12:43.752Z,99.90
2018-10-16T23:15:12.655Z,99.90
2018-10-16T23:17:41.165Z,99.90
2018-10-16T23:20:11.230Z,99.90
2018-10-16T23:22:40.135Z,99.90
2018-10-16T23:25:08.654Z,99.90
2018-10-16T23:27:37.214Z,99.90
2018-10-16T23:30:06.328Z,99.90
2018-10-16T23:32:34.914Z,99.90
2018-10-16T23:35:03.631Z,99.90
2018-10-16T23:37:32.083Z,99.90
2018-10-16T23:40:00.546Z,99.90
2018-10-16T23:42:29.048Z,99.90
2018-10-16T23:44:58.132Z,99.90
2018-10-16T23:47:26.627Z,99.90
2018-10-16T23:49:55.113Z,99.90
2018-10-16T23:52:23.596Z,99.90
2018-10-16T23:54:52.111Z,99.90
2018-10-16T23:57:21.279Z,99.90
2018-10-16T23:59:49.750Z,99.90
